Time;durP1;ratioP1;P1;durP2;ratioP2;P2;SDS_P1;SDS_P2;PMS_P1;PMS_P2;Temp;Humidity;BMP_temperature;BMP_pressure;BME280_temperature;BME280_humidity;BME280_pressure;Samples;Min_cycle;Max_cycle;Signal;HPM_P1;HPM_P2
2022/01/04 00:01:24;;;;;;;1.83;0.50;;;11.20;99.90;;;;;;5044445;28;20612;-80
2022/01/04 00:03:51;;;;;;;1.10;0.50;;;11.20;99.90;;;;;;5050348;28;20203;-80
2022/01/04 00:06:16;;;;;;;1.02;0.50;;;11.20;99.90;;;;;;5068491;28;20177;-80
2022/01/04 00:08:42;;;;;;;1.10;0.50;;;11.20;99.90;;;;;;5050337;28;20204;-80
2022/01/04 00:11:19;;;;;;;2.17;0.63;;;11.20;99.90;;;;;;5058898;28;20183;-80
2022/01/04 00:13:46;;;;;;;1.15;0.60;;;11.20;99.90;;;;;;5076744;28;20181;-80
2022/01/04 00:16:12;;;;;;;1.48;0.70;;;11.10;99.90;;;;;;5059514;28;20200;-80
2022/01/04 00:18:39;;;;;;;1.23;0.50;;;11.10;99.90;;;;;;5076319;28;20192;-80
2022/01/04 00:21:06;;;;;;;1.58;0.68;;;11.10;99.90;;;;;;5073958;28;20698;-80
2022/01/04 00:23:32;;;;;;;1.92;0.60;;;11.00;99.90;;;;;;5076588;28;20168;-79
2022/01/04 00:25:58;;;;;;;1.93;0.70;;;11.00;99.90;;;;;;5058642;28;20187;-79
2022/01/04 00:28:24;;;;;;;1.10;0.50;;;11.00;99.90;;;;;;5064771;28;21158;-80
2022/01/04 00:30:50;;;;;;;1.35;0.60;;;11.00;99.90;;;;;;5052378;28;20525;-79
2022/01/04 00:33:17;;;;;;;1.40;0.67;;;11.00;99.90;;;;;;5076368;28;20169;-79
2022/01/04 00:35:43;;;;;;;1.15;0.60;;;11.00;99.90;;;;;;5076248;28;20172;-79
2022/01/04 00:38:08;;;;;;;1.23;0.60;;;11.00;99.90;;;;;;5074231;28;20197;-79
2022/01/04 00:40:35;;;;;;;0.90;0.50;;;10.90;99.90;;;;;;5072443;28;20232;-79
2022/01/04 00:43:02;;;;;;;1.00;0.50;;;10.90;99.90;;;;;;5071924;28;20194;-78
2022/01/04 00:45:32;;;;;;;1.08;0.55;;;10.90;99.90;;;;;;5054123;28;20204;-79
2022/01/04 00:50:28;;;;;;;2.20;0.60;;;10.90;99.90;;;;;;5069140;28;20171;-80
2022/01/04 00:52:55;;;;;;;1.33;0.60;;;10.90;99.90;;;;;;5049206;28;20181;-79
2022/01/04 00:55:21;;;;;;;1.20;0.50;;;10.90;99.90;;;;;;5048521;28;20713;-79
2022/01/04 00:57:47;;;;;;;1.20;0.63;;;10.90;99.90;;;;;;5064003;28;20292;-80
2022/01/04 01:00:15;;;;;;;1.30;0.60;;;10.90;99.90;;;;;;5063640;28;20200;-80
2022/01/04 01:02:42;;;;;;;1.40;0.50;;;10.90;99.90;;;;;;5047686;28;20173;-80
2022/01/04 01:05:08;;;;;;;1.02;0.50;;;10.80;99.90;;;;;;5064699;28;20189;-79
2022/01/04 01:07:35;;;;;;;1.38;0.65;;;10.80;99.90;;;;;;5062949;28;20215;-79
2022/01/04 01:10:35;;;;;;;1.20;0.60;;;10.80;99.90;;;;;;5058736;28;20193;-80
2022/01/04 01:13:01;;;;;;;1.35;0.50;;;10.80;99.90;;;;;;5063475;28;20173;-79
2022/01/04 01:15:27;;;;;;;1.30;0.60;;;10.80;99.90;;;;;;5075081;28;20179;-79
2022/01/04 01:17:53;;;;;;;6.72;0.52;;;10.80;99.90;;;;;;5071333;28;21020;-79
2022/01/04 01:20:19;;;;;;;1.07;0.50;;;10.80;99.90;;;;;;5053473;28;20196;-80
2022/01/04 01:22:44;;;;;;;1.20;0.53;;;10.80;99.90;;;;;;5071795;28;20223;-79
2022/01/04 01:25:13;;;;;;;1.40;0.60;;;10.70;99.90;;;;;;5058481;28;20627;-79
2022/01/04 01:27:40;;;;;;;1.38;0.50;;;10.70;99.90;;;;;;5075514;28;20199;-80
2022/01/04 01:30:07;;;;;;;1.05;0.65;;;10.70;99.90;;;;;;5059207;28;20177;-79
2022/01/04 01:32:33;;;;;;;1.00;0.50;;;10.70;99.90;;;;;;5075820;28;20165;-78
2022/01/04 01:34:59;;;;;;;0.98;0.50;;;10.60;99.90;;;;;;5076125;28;20219;-78
2022/01/04 01:37:25;;;;;;;1.40;0.60;;;10.60;99.90;;;;;;5075827;28;20223;-79
2022/01/04 01:39:51;;;;;;;1.10;0.50;;;10.60;99.90;;;;;;5076120;28;20177;-79
2022/01/04 01:42:16;;;;;;;1.37;0.60;;;10.60;99.90;;;;;;5057713;28;20161;-79
2022/01/04 01:44:42;;;;;;;1.73;0.53;;;10.60;99.90;;;;;;5051339;28;20201;-78
2022/01/04 01:47:08;;;;;;;1.00;0.53;;;10.60;99.90;;;;;;5077970;28;20189;-79
2022/01/04 01:49:34;;;;;;;1.60;0.60;;;10.50;99.90;;;;;;5057923;28;20192;-80
2022/01/04 01:52:00;;;;;;;1.00;0.50;;;10.60;99.90;;;;;;5073918;28;20544;-79
2022/01/04 01:54:27;;;;;;;1.00;0.50;;;10.60;99.90;;;;;;5056507;28;20567;-80
2022/01/04 01:56:53;;;;;;;1.42;0.60;;;10.50;99.90;;;;;;5076218;28;20189;-79
2022/01/04 01:59:20;;;;;;;1.52;0.63;;;10.60;99.90;;;;;;5057048;28;20169;-80
2022/01/04 02:01:46;;;;;;;2.00;0.50;;;10.60;99.90;;;;;;5056755;28;20586;-79
2022/01/04 02:04:11;;;;;;;1.67;0.50;;;10.60;99.90;;;;;;5056592;28;20203;-78
2022/01/04 02:06:37;;;;;;;1.80;0.57;;;10.60;99.90;;;;;;5070318;28;20576;-80
2022/01/04 02:09:04;;;;;;;1.80;0.60;;;10.60;99.90;;;;;;5051851;28;20841;-80
2022/01/04 02:11:30;;;;;;;1.70;0.70;;;10.60;99.90;;;;;;5073101;28;20169;-79
2022/01/04 02:14:01;;;;;;;3.65;0.70;;;10.60;99.90;;;;;;5059367;28;20187;-79
2022/01/04 02:16:29;;;;;;;1.40;0.80;;;10.60;99.90;;;;;;5069772;28;20176;-79
2022/01/04 02:19:03;;;;;;;1.25;0.65;;;10.60;99.90;;;;;;5071637;28;20177;-79
2022/01/04 02:21:30;;;;;;;1.45;0.60;;;10.60;99.90;;;;;;5050516;28;20173;-79
2022/01/04 02:23:55;;;;;;;1.70;0.70;;;10.60;99.90;;;;;;5071128;28;20209;-79
2022/01/04 02:26:22;;;;;;;1.40;0.80;;;10.60;99.90;;;;;;5055369;28;20172;-79
2022/01/04 02:28:49;;;;;;;1.88;0.88;;;10.60;99.90;;;;;;5057843;28;20196;-80
2022/01/04 02:31:14;;;;;;;3.40;0.88;;;10.60;99.90;;;;;;5058376;28;20252;-79
2022/01/04 02:33:40;;;;;;;2.53;0.80;;;10.60;99.90;;;;;;5059120;28;20180;-80
2022/01/04 02:36:06;;;;;;;1.20;0.60;;;10.60;99.90;;;;;;5060201;28;20260;-79
2022/01/04 02:38:33;;;;;;;1.30;0.80;;;10.60;99.90;;;;;;5058570;28;20193;-79
2022/01/04 02:41:00;;;;;;;1.20;0.60;;;10.60;99.90;;;;;;5076164;28;20185;-80
2022/01/04 02:43:25;;;;;;;1.10;0.60;;;10.60;99.90;;;;;;5059606;28;20160;-79
2022/01/04 02:45:51;;;;;;;1.60;0.60;;;10.60;99.90;;;;;;5077767;28;20146;-79
2022/01/04 02:48:17;;;;;;;2.70;0.70;;;10.60;99.90;;;;;;5060075;28;20204;-79
2022/01/04 02:50:43;;;;;;;1.13;0.53;;;10.60;99.90;;;;;;5077858;28;20184;-79
2022/01/04 02:53:08;;;;;;;1.30;0.60;;;10.60;99.90;;;;;;5074650;28;20165;-80
2022/01/04 02:55:34;;;;;;;1.40;0.70;;;10.60;99.90;;;;;;5071167;28;20586;-80
2022/01/04 02:58:00;;;;;;;1.40;0.60;;;10.60;99.90;;;;;;5054693;28;20185;-80
2022/01/04 03:00:28;;;;;;;1.30;0.60;;;10.60;99.90;;;;;;5064201;28;20576;-79
2022/01/04 03:02:54;;;;;;;1.35;0.63;;;10.60;99.90;;;;;;5065340;28;20643;-79
2022/01/04 03:05:20;;;;;;;1.20;0.50;;;10.60;99.90;;;;;;5052084;28;20201;-80
2022/01/04 03:07:46;;;;;;;1.60;0.50;;;10.60;99.90;;;;;;5069992;28;20185;-79
2022/01/04 03:10:12;;;;;;;1.37;0.50;;;10.60;99.90;;;;;;5071690;28;20560;-79
2022/01/04 03:12:44;;;;;;;1.20;0.50;;;10.60;99.90;;;;;;5057852;28;20175;-80
2022/01/04 03:15:14;;;;;;;1.05;0.50;;;10.60;99.90;;;;;;5058888;28;20232;-79
2022/01/04 03:17:40;;;;;;;1.38;0.60;;;10.60;99.90;;;;;;5049669;28;20197;-80
2022/01/04 03:20:07;;;;;;;1.10;0.50;;;10.60;99.90;;;;;;5044238;28;20196;-80
2022/01/04 03:22:33;;;;;;;1.20;0.57;;;10.60;99.90;;;;;;5060469;28;20169;-80
2022/01/04 03:24:59;;;;;;;2.60;0.50;;;10.60;99.90;;;;;;5045206;28;20193;-79
2022/01/04 03:27:24;;;;;;;1.03;0.60;;;10.60;99.90;;;;;;5049681;28;20613;-80
2022/01/04 03:29:50;;;;;;;1.13;0.50;;;10.60;99.90;;;;;;5035166;28;20208;-79
2022/01/04 03:32:16;;;;;;;2.33;0.77;;;10.60;99.90;;;;;;5049085;28;20200;-79
2022/01/04 03:34:41;;;;;;;1.20;0.50;;;10.60;99.90;;;;;;5064030;28;20248;-80
2022/01/04 03:37:07;;;;;;;1.20;0.50;;;10.50;99.90;;;;;;5063702;28;20196;-80
2022/01/04 03:39:33;;;;;;;1.60;0.60;;;10.60;99.90;;;;;;5065509;28;20176;-79
2022/01/04 03:41:58;;;;;;;1.10;0.40;;;10.50;99.90;;;;;;5062498;28;20165;-80
2022/01/04 03:44:24;;;;;;;1.10;0.50;;;10.50;99.90;;;;;;5061635;28;20223;-79
2022/01/04 03:46:53;;;;;;;1.10;0.50;;;10.50;99.90;;;;;;5048622;28;20588;-79
2022/01/04 03:49:20;;;;;;;2.20;0.50;;;10.50;99.90;;;;;;5045253;28;20173;-79
2022/01/04 03:51:46;;;;;;;1.70;0.50;;;10.50;99.90;;;;;;5041739;28;20177;-80
2022/01/04 03:54:12;;;;;;;0.90;0.50;;;10.50;99.90;;;;;;5060996;28;20233;-79
2022/01/04 03:56:37;;;;;;;1.00;0.50;;;10.50;99.90;;;;;;5058382;28;20184;-78
2022/01/04 03:59:04;;;;;;;0.90;0.50;;;10.40;99.90;;;;;;5039502;22;20308;-78
2022/01/04 04:01:30;;;;;;;1.10;0.50;;;10.50;99.90;;;;;;5043787;28;20178;-78
2022/01/04 04:03:55;;;;;;;1.10;0.40;;;10.40;99.90;;;;;;5021205;28;20197;-78
2022/01/04 04:06:21;;;;;;;1.00;0.50;;;10.50;99.90;;;;;;5033203;28;20662;-78
2022/01/04 04:08:47;;;;;;;1.20;0.50;;;10.40;99.90;;;;;;5050987;28;20722;-77
2022/01/04 04:11:13;;;;;;;1.20;0.70;;;10.40;99.90;;;;;;5032948;28;21232;-78
2022/01/04 04:13:39;;;;;;;1.43;0.43;;;10.40;99.90;;;;;;5050762;28;20705;-77
2022/01/04 04:16:04;;;;;;;1.13;0.50;;;10.40;99.90;;;;;;5051090;28;20509;-77
2022/01/04 04:18:30;;;;;;;1.80;0.50;;;10.40;99.90;;;;;;5051004;28;20193;-78
2022/01/04 04:20:56;;;;;;;1.10;0.50;;;10.40;99.90;;;;;;5016590;28;20588;-77
2022/01/04 04:23:22;;;;;;;1.93;0.50;;;10.40;99.90;;;;;;5050807;28;20165;-77
2022/01/04 04:25:47;;;;;;;1.20;0.53;;;10.40;99.90;;;;;;5036077;28;20201;-77
2022/01/04 04:28:14;;;;;;;1.00;0.50;;;10.40;99.90;;;;;;5052842;28;20296;-77
2022/01/04 04:30:39;;;;;;;1.20;0.45;;;10.40;99.90;;;;;;5050995;28;20219;-77
2022/01/04 04:33:05;;;;;;;2.33;0.50;;;10.40;99.90;;;;;;5019726;28;20169;-77
2022/01/04 04:35:31;;;;;;;1.20;0.50;;;10.40;99.90;;;;;;5036654;28;20582;-77
2022/01/04 04:38:01;;;;;;;1.07;0.50;;;10.40;99.90;;;;;;5054358;28;20189;-77
2022/01/04 04:40:27;;;;;;;1.23;0.40;;;10.40;99.90;;;;;;5036586;28;20574;-77
2022/01/04 04:42:53;;;;;;;1.15;0.50;;;10.30;99.90;;;;;;5054145;28;20205;-76
2022/01/04 04:45:19;;;;;;;1.10;0.50;;;10.30;99.90;;;;;;5054504;28;20306;-77
2022/01/04 04:47:44;;;;;;;1.10;0.50;;;10.30;99.90;;;;;;5054271;28;20601;-77
2022/01/04 04:50:11;;;;;;;1.47;0.50;;;10.30;99.90;;;;;;5036561;28;20520;-77
2022/01/04 04:52:36;;;;;;;1.00;0.50;;;10.30;99.90;;;;;;5035839;28;20161;-77
2022/01/04 04:55:06;;;;;;;1.93;0.60;;;10.30;99.90;;;;;;5054407;28;20698;-77
2022/01/04 04:57:31;;;;;;;1.90;0.75;;;10.30;99.90;;;;;;5054144;28;20193;-77
2022/01/04 04:59:57;;;;;;;1.00;0.50;;;10.30;99.90;;;;;;5054311;28;20177;-77
2022/01/04 05:02:23;;;;;;;1.97;0.60;;;10.40;99.90;;;;;;5054236;28;20169;-77
2022/01/04 05:04:49;;;;;;;1.50;0.60;;;10.30;99.90;;;;;;5025135;28;20258;-77
2022/01/04 05:07:14;;;;;;;2.40;0.60;;;10.30;99.90;;;;;;5054034;28;20609;-76
2022/01/04 05:09:40;;;;;;;1.30;0.60;;;10.30;99.90;;;;;;5036266;28;21217;-76
2022/01/04 05:12:07;;;;;;;1.60;0.68;;;10.30;99.90;;;;;;5035969;28;20167;-76
2022/01/04 05:14:33;;;;;;;2.78;0.85;;;10.30;99.90;;;;;;5035958;28;20173;-77
2022/01/04 05:16:58;;;;;;;2.78;0.70;;;10.30;99.90;;;;;;5035984;28;20172;-76
2022/01/04 05:19:24;;;;;;;1.37;0.60;;;10.20;99.90;;;;;;5019647;28;20172;-76
2022/01/04 05:21:50;;;;;;;4.43;0.73;;;10.30;99.90;;;;;;5053868;28;20234;-76
2022/01/04 05:24:16;;;;;;;1.20;0.60;;;10.20;99.90;;;;;;5035668;28;20814;-77
2022/01/04 05:26:41;;;;;;;1.40;0.77;;;10.20;99.90;;;;;;5036007;28;20168;-76
2022/01/04 05:29:07;;;;;;;1.30;0.73;;;10.20;99.90;;;;;;5053751;28;20263;-77
2022/01/04 05:31:33;;;;;;;1.53;0.90;;;10.20;99.90;;;;;;5035908;28;20165;-76
2022/01/04 05:33:59;;;;;;;1.60;1.10;;;10.10;99.90;;;;;;5018945;28;20223;-76
2022/01/04 05:36:24;;;;;;;1.10;0.60;;;10.10;99.90;;;;;;5053707;28;20966;-77
2022/01/04 05:38:50;;;;;;;1.40;0.80;;;10.00;99.90;;;;;;5053538;28;20256;-77
2022/01/04 05:41:16;;;;;;;1.60;0.90;;;10.00;99.90;;;;;;5058601;28;20260;-76
2022/01/04 05:43:42;;;;;;;2.33;0.90;;;10.00;99.90;;;;;;5035406;28;20575;-77
2022/01/04 05:46:07;;;;;;;1.40;0.80;;;10.00;99.90;;;;;;5053372;28;20222;-77
2022/01/04 05:48:33;;;;;;;2.00;0.93;;;10.00;99.90;;;;;;5053365;28;20225;-77
2022/01/04 05:50:59;;;;;;;2.27;0.80;;;10.00;99.90;;;;;;5035511;28;20173;-77
2022/01/04 05:53:25;;;;;;;1.60;0.70;;;10.00;99.90;;;;;;5035065;28;20177;-76
2022/01/04 05:55:51;;;;;;;2.90;0.90;;;10.10;99.90;;;;;;5053191;28;20200;-77
2022/01/04 05:58:16;;;;;;;2.50;0.87;;;10.10;99.90;;;;;;5050543;28;20212;-77
2022/01/04 06:00:42;;;;;;;1.50;0.70;;;10.10;99.90;;;;;;5033257;28;21119;-77
2022/01/04 06:03:08;;;;;;;1.70;0.70;;;10.10;99.90;;;;;;5032735;28;20162;-77
2022/01/04 06:05:34;;;;;;;1.30;1.00;;;10.20;99.90;;;;;;5038246;28;20281;-77
2022/01/04 06:07:59;;;;;;;1.30;0.70;;;10.20;99.90;;;;;;5008491;28;20622;-77
2022/01/04 06:10:25;;;;;;;1.20;0.80;;;10.10;99.90;;;;;;5040067;28;20576;-77
2022/01/04 06:15:18;;;;;;;1.10;0.60;;;10.00;99.90;;;;;;5032908;28;20568;-76
2022/01/04 06:17:47;;;;;;;1.27;0.70;;;9.90;99.90;;;;;;5018981;28;20987;-77
2022/01/04 06:20:18;;;;;;;2.20;0.80;;;9.90;99.90;;;;;;5032813;28;20180;-77
2022/01/04 06:22:43;;;;;;;1.30;0.70;;;9.90;99.90;;;;;;5032478;28;20236;-77
2022/01/04 06:25:12;;;;;;;1.33;0.67;;;9.90;99.90;;;;;;5032528;28;20197;-77
2022/01/04 06:27:40;;;;;;;1.40;0.68;;;9.80;99.90;;;;;;5032580;28;20188;-76
2022/01/04 06:30:06;;;;;;;2.97;0.80;;;9.80;99.90;;;;;;5032784;28;20170;-76
2022/01/04 06:32:32;;;;;;;1.50;0.70;;;9.80;99.90;;;;;;5014620;28;20656;-76
2022/01/04 06:34:58;;;;;;;1.27;0.70;;;9.80;99.90;;;;;;4998417;28;20227;-76
2022/01/04 06:37:23;;;;;;;1.23;0.70;;;9.80;99.90;;;;;;5014851;28;20584;-76
2022/01/04 06:39:49;;;;;;;1.20;0.70;;;9.90;99.90;;;;;;5014732;28;20169;-76
2022/01/04 06:42:15;;;;;;;3.00;0.60;;;9.90;99.90;;;;;;5031837;28;20170;-76
2022/01/04 06:44:43;;;;;;;1.30;0.60;;;9.90;99.90;;;;;;5032271;28;20208;-75
2022/01/04 06:47:10;;;;;;;1.40;0.60;;;9.90;99.90;;;;;;5031852;28;20165;-76
2022/01/04 06:49:37;;;;;;;1.15;0.60;;;9.90;99.90;;;;;;5032194;28;20213;-76
2022/01/04 06:52:04;;;;;;;1.10;0.60;;;9.90;99.90;;;;;;5014455;28;20204;-76
2022/01/04 06:54:30;;;;;;;1.20;0.60;;;9.90;99.90;;;;;;5018375;28;20355;-76
2022/01/04 06:56:56;;;;;;;1.40;0.70;;;9.90;99.90;;;;;;5014378;28;20180;-76
2022/01/04 06:59:21;;;;;;;2.57;0.90;;;9.90;99.90;;;;;;5031902;28;20205;-76
2022/01/04 07:01:47;;;;;;;1.40;0.70;;;9.90;99.90;;;;;;5031866;28;20564;-76
2022/01/04 07:04:13;;;;;;;1.17;0.80;;;9.90;99.90;;;;;;5030104;28;20628;-75
2022/01/04 07:06:40;;;;;;;1.42;1.13;;;9.90;99.90;;;;;;4997710;28;20177;-75
2022/01/04 07:09:07;;;;;;;1.40;0.80;;;9.90;99.90;;;;;;5013944;28;20276;-76
2022/01/04 07:11:33;;;;;;;2.42;0.80;;;9.90;99.90;;;;;;5031451;28;20166;-75
2022/01/04 07:13:59;;;;;;;1.60;1.05;;;10.00;99.90;;;;;;5031070;28;20212;-76
2022/01/04 07:16:25;;;;;;;1.60;1.00;;;10.00;99.90;;;;;;5013945;28;20278;-76
2022/01/04 07:18:51;;;;;;;3.30;1.00;;;10.00;99.90;;;;;;5031376;28;20189;-76
2022/01/04 07:21:18;;;;;;;1.50;0.93;;;10.00;99.90;;;;;;5013400;28;20273;-76
2022/01/04 07:23:46;;;;;;;1.50;1.10;;;10.00;99.90;;;;;;5013322;28;21174;-75
2022/01/04 07:26:14;;;;;;;2.13;1.10;;;10.00;99.90;;;;;;5013705;28;20892;-76
2022/01/04 07:28:41;;;;;;;2.10;1.05;;;9.90;99.90;;;;;;5033676;28;20558;-79
2022/01/04 07:31:08;;;;;;;1.88;1.27;;;9.90;99.90;;;;;;5045291;28;20196;-79
2022/01/04 07:33:36;;;;;;;1.80;1.20;;;9.90;99.90;;;;;;5046193;28;20219;-79
2022/01/04 07:36:02;;;;;;;1.40;1.00;;;9.90;99.90;;;;;;5041189;28;20166;-79
2022/01/04 07:38:37;;;;;;;5.20;1.35;;;9.90;99.90;;;;;;5004166;28;20186;-80
2022/01/04 07:41:04;;;;;;;1.50;1.20;;;10.00;99.90;;;;;;5041125;28;20165;-80
2022/01/04 07:43:30;;;;;;;1.85;1.20;;;10.00;99.90;;;;;;5040713;28;20173;-79
2022/01/04 07:45:56;;;;;;;2.03;1.10;;;10.00;99.90;;;;;;5011492;28;20260;-79
2022/01/04 07:48:22;;;;;;;1.70;1.07;;;10.10;99.90;;;;;;5030458;28;20190;-79
2022/01/04 07:50:49;;;;;;;3.07;1.70;;;10.10;99.90;;;;;;5048724;28;20204;-79
2022/01/04 07:53:15;;;;;;;2.85;1.30;;;10.10;99.90;;;;;;5049950;28;20177;-80
2022/01/04 07:55:42;;;;;;;3.08;1.33;;;10.20;99.90;;;;;;5028030;28;20173;-80
2022/01/04 07:58:08;;;;;;;2.22;1.13;;;10.20;99.90;;;;;;5013713;28;20212;-80
2022/01/04 08:00:34;;;;;;;1.50;0.93;;;10.20;99.90;;;;;;5049738;28;20174;-80
2022/01/04 08:03:00;;;;;;;1.93;1.27;;;10.30;99.90;;;;;;5046077;28;20300;-79
2022/01/04 08:05:27;;;;;;;2.05;1.42;;;10.30;99.90;;;;;;5037691;28;20609;-80
2022/01/04 08:07:53;;;;;;;2.35;1.45;;;10.30;99.90;;;;;;5036381;28;20200;-80
2022/01/04 08:10:22;;;;;;;2.10;1.20;;;10.30;99.90;;;;;;5048110;28;20176;-79
2022/01/04 08:12:48;;;;;;;4.60;1.43;;;10.30;99.90;;;;;;5031630;28;20157;-79
2022/01/04 08:15:14;;;;;;;2.53;1.13;;;10.30;99.90;;;;;;5034620;28;20158;-79
2022/01/04 08:17:40;;;;;;;1.90;1.20;;;10.40;99.90;;;;;;5054822;28;20194;-79
2022/01/04 08:20:07;;;;;;;2.33;1.38;;;10.40;99.90;;;;;;5039144;28;20616;-79
2022/01/04 08:22:34;;;;;;;2.63;1.00;;;10.40;99.90;;;;;;5048465;28;20170;-79
2022/01/04 08:25:03;;;;;;;1.75;1.27;;;10.40;99.90;;;;;;5054850;28;20244;-79
2022/01/04 08:27:38;;;;;;;3.40;1.42;;;10.40;99.90;;;;;;5051706;28;20194;-79
2022/01/04 08:30:06;;;;;;;3.88;1.17;;;10.40;99.90;;;;;;5047681;28;20164;-79
2022/01/04 08:32:32;;;;;;;5.28;1.40;;;10.30;99.90;;;;;;5029869;28;20237;-80
2022/01/04 08:34:58;;;;;;;2.53;2.10;;;10.30;99.90;;;;;;5054010;28;20173;-80
2022/01/04 08:37:24;;;;;;;2.47;1.90;;;10.20;99.90;;;;;;5050642;28;20197;-82
2022/01/04 08:39:49;;;;;;;2.00;1.60;;;10.20;99.90;;;;;;5018868;28;20233;-75
2022/01/04 08:42:15;;;;;;;2.80;2.03;;;10.20;99.90;;;;;;5016682;28;20169;-76
2022/01/04 08:44:41;;;;;;;4.80;2.20;;;10.20;99.90;;;;;;5036529;28;20204;-75
2022/01/04 08:47:08;;;;;;;3.60;2.30;;;10.20;99.90;;;;;;5036875;28;20207;-75
2022/01/04 08:49:37;;;;;;;2.50;1.98;;;10.10;99.90;;;;;;5015858;28;20586;-75
2022/01/04 08:52:05;;;;;;;3.35;2.85;;;10.10;99.90;;;;;;5032885;28;20174;-75
2022/01/04 08:54:30;;;;;;;3.30;3.00;;;10.00;99.90;;;;;;5033764;28;20578;-75
2022/01/04 08:56:57;;;;;;;2.50;2.27;;;10.00;99.90;;;;;;5033758;28;20169;-76
2022/01/04 08:59:23;;;;;;;3.47;2.40;;;10.00;99.90;;;;;;5016341;28;20206;-74
2022/01/04 09:01:49;;;;;;;3.55;2.00;;;10.10;99.90;;;;;;5033806;28;20599;-75
2022/01/04 09:04:15;;;;;;;2.30;2.00;;;10.10;99.90;;;;;;5015598;28;20292;-74
2022/01/04 09:06:40;;;;;;;4.03;2.40;;;10.10;99.90;;;;;;5033856;28;20249;-74
2022/01/04 09:09:07;;;;;;;3.17;2.33;;;10.20;99.90;;;;;;5033648;28;20555;-74
2022/01/04 09:11:33;;;;;;;2.40;2.20;;;10.30;99.90;;;;;;5013024;28;20986;-74
2022/01/04 09:19:26;;;;;;;2.60;2.15;;;10.50;99.90;;;;;;5033591;28;20174;-75
2022/01/04 09:21:53;;;;;;;3.85;2.50;;;10.50;99.90;;;;;;5016619;28;20175;-75
2022/01/04 09:24:19;;;;;;;2.83;2.53;;;10.50;99.90;;;;;;5013808;28;20606;-75
2022/01/04 09:26:47;;;;;;;3.50;2.75;;;10.50;99.90;;;;;;5013323;28;20163;-75
2022/01/04 09:29:13;;;;;;;3.08;2.78;;;10.60;99.90;;;;;;5023349;28;20193;-75
2022/01/04 09:31:38;;;;;;;4.50;3.23;;;10.60;99.90;;;;;;5032964;28;20177;-75
2022/01/04 09:34:04;;;;;;;4.07;2.93;;;10.60;99.90;;;;;;5015227;28;20577;-75
2022/01/04 09:36:34;;;;;;;3.53;2.73;;;10.70;99.90;;;;;;5033183;28;20231;-75
2022/01/04 09:39:01;;;;;;;4.05;2.50;;;10.70;99.90;;;;;;5032710;28;20710;-74
2022/01/04 09:41:27;;;;;;;4.70;3.05;;;10.70;99.90;;;;;;5015299;28;20170;-74
2022/01/04 09:43:53;;;;;;;3.42;3.10;;;10.70;99.90;;;;;;5032232;28;20521;-74
2022/01/04 09:46:19;;;;;;;3.03;2.73;;;10.80;99.90;;;;;;5032847;28;20177;-74
2022/01/04 09:48:45;;;;;;;2.93;2.70;;;10.80;99.90;;;;;;5014848;28;20604;-74
2022/01/04 09:51:12;;;;;;;3.40;2.80;;;10.80;99.90;;;;;;5032730;28;21131;-74
2022/01/04 09:53:38;;;;;;;3.53;2.72;;;10.80;99.90;;;;;;5014549;28;20637;-74
2022/01/04 09:56:04;;;;;;;5.27;2.80;;;10.80;99.90;;;;;;5014902;28;20170;-75
2022/01/04 09:58:30;;;;;;;3.10;2.80;;;10.90;99.90;;;;;;5033024;28;20691;-75
2022/01/04 10:00:56;;;;;;;3.30;2.10;;;10.80;99.90;;;;;;5036273;28;20178;-74
2022/01/04 10:03:28;;;;;;;2.33;1.73;;;10.80;99.90;;;;;;5031848;28;20617;-75
2022/01/04 10:06:07;;;;;;;3.15;2.20;;;10.80;99.90;;;;;;5032620;28;20627;-75
2022/01/04 10:08:33;;;;;;;2.17;1.80;;;10.90;99.90;;;;;;5032337;28;20800;-75
2022/01/04 10:11:06;;;;;;;2.13;1.77;;;10.80;99.90;;;;;;5032749;28;20240;-75
2022/01/04 10:13:32;;;;;;;5.13;1.80;;;10.90;99.90;;;;;;5031991;28;20201;-75
2022/01/04 10:15:59;;;;;;;3.37;1.90;;;10.90;99.90;;;;;;5032359;28;20279;-74
2022/01/04 10:18:28;;;;;;;1.70;1.60;;;10.90;99.90;;;;;;5014118;28;20627;-74
2022/01/04 10:21:02;;;;;;;2.72;1.60;;;10.90;99.90;;;;;;5032457;28;20174;-74
2022/01/04 10:23:28;;;;;;;2.97;2.13;;;10.90;99.90;;;;;;5031932;28;20533;-74
2022/01/04 10:26:06;;;;;;;2.00;1.50;;;11.00;99.90;;;;;;5031999;28;20200;-74
2022/01/04 10:28:41;;;;;;;2.70;1.75;;;10.90;99.90;;;;;;4997571;28;20193;-74
2022/01/04 10:31:10;;;;;;;2.95;1.70;;;11.00;99.90;;;;;;5031721;28;20161;-74
2022/01/04 10:33:36;;;;;;;2.17;1.50;;;11.00;99.90;;;;;;5031183;28;20169;-73
2022/01/04 10:36:11;;;;;;;1.63;1.40;;;11.00;99.90;;;;;;5031960;28;20170;-74
2022/01/04 10:38:43;;;;;;;3.15;2.15;;;11.00;99.90;;;;;;5031527;28;20193;-73
2022/01/04 10:41:20;;;;;;;2.08;1.60;;;11.00;99.90;;;;;;5031720;28;20561;-74
2022/01/04 10:43:50;;;;;;;1.90;1.45;;;11.00;99.90;;;;;;5031456;28;20169;-74
2022/01/04 10:46:19;;;;;;;2.10;1.33;;;11.00;99.90;;;;;;5031477;28;20257;-74
2022/01/04 10:48:47;;;;;;;1.60;1.33;;;11.00;99.90;;;;;;5013981;28;20546;-74
2022/01/04 10:51:16;;;;;;;2.50;1.23;;;11.00;99.90;;;;;;5013283;28;20177;-74
2022/01/04 10:53:51;;;;;;;2.50;1.20;;;11.00;99.90;;;;;;5031516;28;20169;-74
2022/01/04 10:56:38;;;;;;;1.80;1.10;;;10.90;99.90;;;;;;5014244;28;20165;-74
2022/01/04 10:59:11;;;;;;;2.00;1.30;;;11.00;99.90;;;;;;5031243;28;20209;-74
2022/01/04 11:01:46;;;;;;;1.52;1.00;;;11.00;99.90;;;;;;5031438;28;20177;-74
2022/01/04 11:04:14;;;;;;;4.05;1.20;;;11.00;99.90;;;;;;5030864;28;20242;-74
2022/01/04 11:06:40;;;;;;;1.63;0.85;;;11.00;99.90;;;;;;5031426;28;20219;-72
2022/01/04 11:09:08;;;;;;;1.77;1.00;;;11.00;99.90;;;;;;5013699;28;20200;-73
2022/01/04 11:11:34;;;;;;;2.10;1.05;;;11.00;99.90;;;;;;5031678;28;20173;-73
2022/01/04 11:14:00;;;;;;;4.53;1.10;;;11.00;99.90;;;;;;5036789;28;20312;-74
2022/01/04 11:16:29;;;;;;;2.10;1.20;;;11.00;99.90;;;;;;5031232;28;20681;-74
2022/01/04 11:18:56;;;;;;;2.35;1.13;;;11.00;99.90;;;;;;5031022;28;20279;-74
2022/01/04 11:21:25;;;;;;;2.60;1.13;;;11.00;99.90;;;;;;5013480;28;20630;-74
2022/01/04 11:23:52;;;;;;;1.92;1.35;;;11.00;99.90;;;;;;5013398;28;20162;-74
2022/01/04 11:26:19;;;;;;;2.95;2.22;;;11.00;99.90;;;;;;4995840;28;20175;-75
2022/01/04 11:28:49;;;;;;;2.13;1.40;;;11.00;99.90;;;;;;4993965;28;20704;-74
2022/01/04 11:31:30;;;;;;;1.70;0.90;;;11.00;99.90;;;;;;5011609;28;20181;-74
2022/01/04 11:34:15;;;;;;;2.53;1.00;;;10.90;99.90;;;;;;5011721;28;20181;-74
2022/01/04 11:36:52;;;;;;;3.45;1.15;;;10.90;99.90;;;;;;5011558;28;20249;-74
2022/01/04 11:39:33;;;;;;;2.40;1.00;;;10.90;99.90;;;;;;5011364;28;20236;-75
2022/01/04 11:42:09;;;;;;;1.38;0.95;;;10.90;99.90;;;;;;5014971;28;20166;-74
2022/01/04 11:44:46;;;;;;;2.13;0.90;;;10.90;99.90;;;;;;4997858;28;20662;-75
2022/01/04 11:47:15;;;;;;;2.00;1.10;;;11.00;99.90;;;;;;4998148;28;20166;-75
2022/01/04 11:50:20;;;;;;;4.00;1.27;;;10.90;99.90;;;;;;5015458;28;20158;-74
2022/01/04 11:52:55;;;;;;;2.85;1.10;;;11.00;99.90;;;;;;4997607;28;20173;-74
2022/01/04 11:55:26;;;;;;;1.63;1.05;;;11.00;99.90;;;;;;4997794;28;20170;-74
2022/01/04 11:57:54;;;;;;;1.67;0.90;;;11.00;99.90;;;;;;4997739;28;20213;-74
2022/01/04 12:00:29;;;;;;;3.08;0.90;;;11.00;99.90;;;;;;5015216;28;20598;-74
2022/01/04 12:03:09;;;;;;;4.15;1.15;;;11.00;99.90;;;;;;4997405;28;20179;-74
2022/01/04 12:05:37;;;;;;;1.98;0.80;;;11.00;99.90;;;;;;4997683;28;20578;-74
2022/01/04 12:08:32;;;;;;;2.70;2.25;;;11.10;99.90;;;;;;5015064;28;20557;-73
2022/01/04 12:10:57;;;;;;;3.53;1.88;;;11.10;99.90;;;;;;5015226;28;20168;-73
2022/01/04 12:13:25;;;;;;;5.10;1.60;;;11.10;99.90;;;;;;5014605;28;20221;-73
2022/01/04 12:15:57;;;;;;;2.17;1.13;;;11.20;99.90;;;;;;5033819;28;20174;-73
2022/01/04 12:18:33;;;;;;;2.47;1.10;;;11.20;99.90;;;;;;5016753;28;20247;-73
2022/01/04 12:21:02;;;;;;;4.32;1.10;;;11.30;99.90;;;;;;5034755;28;20173;-74
2022/01/04 12:23:35;;;;;;;1.90;1.00;;;11.30;99.90;;;;;;5016704;28;20173;-74
2022/01/04 12:26:14;;;;;;;1.60;1.17;;;11.40;99.90;;;;;;5017004;28;20205;-74
2022/01/04 12:29:06;;;;;;;1.75;0.90;;;11.40;99.90;;;;;;5039260;28;20966;-74
2022/01/04 12:31:50;;;;;;;2.72;1.30;;;11.40;99.90;;;;;;5015852;28;20801;-75
2022/01/04 12:34:28;;;;;;;2.38;1.20;;;11.30;99.90;;;;;;5034217;28;20244;-74
2022/01/04 12:36:54;;;;;;;2.00;1.10;;;11.40;99.90;;;;;;5034259;28;20260;-74
2022/01/04 12:39:29;;;;;;;1.97;1.20;;;11.40;99.90;;;;;;5034411;28;20297;-75
2022/01/04 12:41:55;;;;;;;1.85;1.38;;;11.50;99.90;;;;;;5016634;28;20580;-75
2022/01/04 12:44:26;;;;;;;2.07;1.20;;;11.40;99.90;;;;;;5033946;28;20204;-74
2022/01/04 12:46:52;;;;;;;2.28;1.70;;;11.50;99.90;;;;;;5016427;28;20177;-74
2022/01/04 12:49:21;;;;;;;2.88;2.15;;;11.50;99.90;;;;;;5016336;28;20189;-74
2022/01/04 12:51:50;;;;;;;2.13;1.42;;;11.50;99.90;;;;;;5015620;28;20731;-74
2022/01/04 12:54:17;;;;;;;2.35;1.85;;;11.50;99.90;;;;;;5015877;28;20176;-74
2022/01/04 12:57:07;;;;;;;2.40;2.10;;;11.40;99.90;;;;;;5033940;28;20182;-74
2022/01/04 12:59:40;;;;;;;3.75;1.55;;;11.40;99.90;;;;;;5002291;28;20554;-75
2022/01/04 13:02:27;;;;;;;3.88;2.90;;;11.50;99.90;;;;;;5033642;28;20656;-76